EJU1752 EBBR-LFMN
Flight info
| Callsign | EJU1752 |
|---|---|
| Flight time | N/A |
| Altitude | 37000 |
| Route | ROUSY DCT GTQ DCT POGOL DCT LASAT DCT MOROK DCT GILIR DCT GEVEA DCT KOGAS DCT MEDAM/N0412F290 DCT VEVAR |
| Aircraft | A320/M-SDE3FGHIRWY/LB1 |
Departure
| Time | 2026-05-05 13:34 |
|---|---|
| Airport | Brussels Airport (EBBR) |
Arrival
| Time | N/A |
|---|---|
| Airport | Nice-Côte d'Azur Airport (LFMN) |
| Time | Latitude | Longitude | Altitude | Speed | Heading |
|---|---|---|---|---|---|
| 2026-05-05 12:53 | 50.90132 | 4.48956 | 126 ft | 0 kts | 155° |
| 2026-05-05 13:20 | 50.90133 | 4.48956 | 130 ft | 1 kts | 155° |
| 2026-05-05 13:20 | 50.90150 | 4.48943 | 124 ft | 1 kts | 155° |
| 2026-05-05 13:20 | 50.90173 | 4.48929 | 125 ft | 4 kts | 167° |
| 2026-05-05 13:20 | 50.90199 | 4.48921 | 122 ft | 4 kts | 161° |
| 2026-05-05 13:21 | 50.90212 | 4.48924 | 122 ft | 4 kts | 70° |
| 2026-05-05 13:21 | 50.90203 | 4.48893 | 123 ft | 1 kts | 65° |
| 2026-05-05 13:21 | 50.90203 | 4.48891 | 123 ft | 0 kts | 65° |
| 2026-05-05 13:23 | 50.90204 | 4.48897 | 123 ft | 3 kts | 66° |
| 2026-05-05 13:23 | 50.90228 | 4.48983 | 126 ft | 13 kts | 65° |
| 2026-05-05 13:23 | 50.90267 | 4.49116 | 124 ft | 13 kts | 65° |
| 2026-05-05 13:24 | 50.90298 | 4.49226 | 126 ft | 10 kts | 65° |
| 2026-05-05 13:24 | 50.90324 | 4.49317 | 124 ft | 10 kts | 65° |
| 2026-05-05 13:24 | 50.90311 | 4.49403 | 123 ft | 9 kts | 157° |
| 2026-05-05 13:24 | 50.90246 | 4.49389 | 127 ft | 12 kts | 193° |
| 2026-05-05 13:25 | 50.90150 | 4.49350 | 126 ft | 14 kts | 194° |
| 2026-05-05 13:25 | 50.90060 | 4.49313 | 131 ft | 15 kts | 194° |
| 2026-05-05 13:25 | 50.89960 | 4.49272 | 134 ft | 13 kts | 194° |
| 2026-05-05 13:25 | 50.89874 | 4.49237 | 139 ft | 15 kts | 194° |
| 2026-05-05 13:26 | 50.89784 | 4.49201 | 144 ft | 10 kts | 194° |
| 2026-05-05 13:26 | 50.89725 | 4.49177 | 147 ft | 7 kts | 194° |
| 2026-05-05 13:26 | 50.89692 | 4.49164 | 149 ft | 6 kts | 195° |
| 2026-05-05 13:26 | 50.89660 | 4.49150 | 151 ft | 5 kts | 197° |
| 2026-05-05 13:27 | 50.89620 | 4.49108 | 153 ft | 7 kts | 221° |
| 2026-05-05 13:27 | 50.89589 | 4.49077 | 154 ft | 4 kts | 200° |
| 2026-05-05 13:27 | 50.89555 | 4.49061 | 156 ft | 6 kts | 197° |
| 2026-05-05 13:27 | 50.89524 | 4.49046 | 157 ft | 4 kts | 198° |
| 2026-05-05 13:28 | 50.89487 | 4.49033 | 158 ft | 11 kts | 192° |
| 2026-05-05 13:28 | 50.89419 | 4.49008 | 161 ft | 8 kts | 194° |
| 2026-05-05 13:28 | 50.89377 | 4.48991 | 162 ft | 4 kts | 194° |
| 2026-05-05 13:28 | 50.89361 | 4.48984 | 163 ft | 1 kts | 195° |
| 2026-05-05 13:29 | 50.89327 | 4.48970 | 165 ft | 4 kts | 194° |
| 2026-05-05 13:29 | 50.89304 | 4.48937 | 166 ft | 10 kts | 237° |
| 2026-05-05 13:29 | 50.89268 | 4.48773 | 164 ft | 18 kts | 248° |
| 2026-05-05 13:29 | 50.89222 | 4.48578 | 164 ft | 19 kts | 251° |
| 2026-05-05 13:30 | 50.89175 | 4.48372 | 164 ft | 21 kts | 250° |
| 2026-05-05 13:30 | 50.89132 | 4.48187 | 164 ft | 15 kts | 250° |
| 2026-05-05 13:30 | 50.89099 | 4.48045 | 164 ft | 13 kts | 250° |
| 2026-05-05 13:30 | 50.89074 | 4.47947 | 164 ft | 6 kts | 240° |
| 2026-05-05 13:31 | 50.89069 | 4.47936 | 164 ft | 0 kts | 234° |
| 2026-05-05 13:32 | 50.89066 | 4.47930 | 164 ft | 3 kts | 231° |
| 2026-05-05 13:32 | 50.89017 | 4.47900 | 169 ft | 8 kts | 177° |
| 2026-05-05 13:32 | 50.88987 | 4.47913 | 172 ft | 4 kts | 162° |
| 2026-05-05 13:32 | 50.88946 | 4.47974 | 177 ft | 13 kts | 111° |
| 2026-05-05 13:33 | 50.88929 | 4.48115 | 179 ft | 13 kts | 97° |
| 2026-05-05 13:33 | 50.88966 | 4.48311 | 178 ft | 38 kts | 70° |
| 2026-05-05 13:33 | 50.89143 | 4.49066 | 177 ft | 105 kts | 70° |
| 2026-05-05 13:33 | 50.89460 | 4.50435 | 177 ft | 157 kts | 70° |
| 2026-05-05 13:34 | 50.89851 | 4.52172 | 641 ft | 167 kts | 69° |
| 2026-05-05 13:34 | 50.90297 | 4.53858 | 1463 ft | 165 kts | 62° |
| 2026-05-05 13:34 | 50.90816 | 4.55475 | 2225 ft | 163 kts | 60° |
| 2026-05-05 13:34 | 50.91354 | 4.57095 | 2704 ft | 174 kts | 60° |
| 2026-05-05 13:35 | 50.91951 | 4.58881 | 2983 ft | 197 kts | 59° |
| 2026-05-05 13:35 | 50.92641 | 4.60947 | 3297 ft | 222 kts | 60° |
| 2026-05-05 13:35 | 50.93389 | 4.63202 | 3729 ft | 245 kts | 61° |
| 2026-05-05 13:35 | 50.94041 | 4.65768 | 4502 ft | 255 kts | 70° |
| 2026-05-05 13:36 | 50.94585 | 4.68479 | 5357 ft | 260 kts | 72° |
| 2026-05-05 13:36 | 50.95107 | 4.71254 | 6205 ft | 264 kts | 73° |
| 2026-05-05 13:36 | 50.95495 | 4.74120 | 6994 ft | 269 kts | 87° |
| 2026-05-05 13:36 | 50.95261 | 4.77076 | 7774 ft | 274 kts | 107° |
| 2026-05-05 13:37 | 50.94377 | 4.79751 | 8552 ft | 280 kts | 128° |
| 2026-05-05 13:37 | 50.92941 | 4.81887 | 9395 ft | 285 kts | 139° |
| 2026-05-05 13:37 | 50.91395 | 4.83900 | 10189 ft | 292 kts | 139° |
| 2026-05-05 13:37 | 50.89713 | 4.85938 | 10467 ft | 316 kts | 146° |
| 2026-05-05 13:38 | 50.87684 | 4.87523 | 10894 ft | 332 kts | 159° |
| 2026-05-05 13:38 | 50.85408 | 4.88395 | 11582 ft | 340 kts | 172° |
| 2026-05-05 13:38 | 50.83062 | 4.88763 | 12324 ft | 344 kts | 173° |
| 2026-05-05 13:38 | 50.80668 | 4.89130 | 13046 ft | 347 kts | 173° |
| 2026-05-05 13:39 | 50.78244 | 4.89510 | 13769 ft | 351 kts | 172° |
| 2026-05-05 13:39 | 50.75803 | 4.89895 | 14465 ft | 353 kts | 172° |
| 2026-05-05 13:39 | 50.73355 | 4.90285 | 15221 ft | 354 kts | 173° |
| 2026-05-05 13:39 | 50.70894 | 4.90677 | 15960 ft | 357 kts | 173° |
| 2026-05-05 13:40 | 50.68432 | 4.91317 | 16664 ft | 357 kts | 163° |
| 2026-05-05 13:40 | 50.66104 | 4.92731 | 17364 ft | 358 kts | 152° |
| 2026-05-05 13:40 | 50.64042 | 4.94858 | 18007 ft | 360 kts | 140° |
| 2026-05-05 13:40 | 50.62188 | 4.97643 | 18577 ft | 363 kts | 135° |
| 2026-05-05 13:41 | 50.60420 | 5.00411 | 19084 ft | 367 kts | 135° |
| 2026-05-05 13:41 | 50.58596 | 5.03251 | 19630 ft | 370 kts | 136° |
| 2026-05-05 13:41 | 50.56746 | 5.06119 | 20182 ft | 374 kts | 136° |
| 2026-05-05 13:41 | 50.54876 | 5.09004 | 20809 ft | 377 kts | 136° |
| 2026-05-05 13:42 | 50.52984 | 5.11917 | 21368 ft | 381 kts | 137° |
| 2026-05-05 13:42 | 50.51114 | 5.14797 | 21964 ft | 382 kts | 137° |
| 2026-05-05 13:42 | 50.49206 | 5.17737 | 22536 ft | 385 kts | 137° |
| 2026-05-05 13:42 | 50.47288 | 5.20691 | 23070 ft | 388 kts | 137° |
| 2026-05-05 13:43 | 50.45345 | 5.23679 | 23571 ft | 391 kts | 137° |
| 2026-05-05 13:43 | 50.43414 | 5.26645 | 24012 ft | 393 kts | 137° |
| 2026-05-05 13:43 | 50.41448 | 5.29656 | 24455 ft | 395 kts | 137° |
| 2026-05-05 13:43 | 50.39474 | 5.32675 | 24888 ft | 397 kts | 137° |
| 2026-05-05 13:44 | 50.37481 | 5.35720 | 25313 ft | 399 kts | 137° |
| 2026-05-05 13:44 | 50.35481 | 5.38773 | 25723 ft | 402 kts | 137° |
| 2026-05-05 13:44 | 50.33493 | 5.41805 | 26133 ft | 404 kts | 137° |
| 2026-05-05 13:44 | 50.31471 | 5.44881 | 26538 ft | 405 kts | 138° |
| 2026-05-05 13:45 | 50.29437 | 5.47968 | 26925 ft | 407 kts | 138° |
| 2026-05-05 13:45 | 50.27415 | 5.51032 | 27320 ft | 409 kts | 137° |
| 2026-05-05 13:45 | 50.25365 | 5.54141 | 27704 ft | 411 kts | 138° |
| 2026-05-05 13:45 | 50.23306 | 5.57263 | 28080 ft | 413 kts | 138° |
| 2026-05-05 13:46 | 50.21242 | 5.60390 | 28445 ft | 415 kts | 138° |
| 2026-05-05 13:46 | 50.19162 | 5.63542 | 28801 ft | 417 kts | 138° |
| 2026-05-05 13:46 | 50.17068 | 5.66704 | 29158 ft | 419 kts | 138° |
| 2026-05-05 13:46 | 50.14996 | 5.69825 | 29493 ft | 421 kts | 138° |
| 2026-05-05 13:47 | 50.12881 | 5.73005 | 29827 ft | 423 kts | 138° |
| 2026-05-05 13:47 | 50.10758 | 5.76189 | 30104 ft | 424 kts | 139° |
| 2026-05-05 13:47 | 50.08481 | 5.79115 | 30367 ft | 423 kts | 148° |
| 2026-05-05 13:47 | 50.05932 | 5.81424 | 30626 ft | 422 kts | 156° |
| 2026-05-05 13:48 | 50.03228 | 5.83049 | 30891 ft | 421 kts | 162° |
| 2026-05-05 13:48 | 50.00444 | 5.84475 | 31278 ft | 419 kts | 162° |
| 2026-05-05 13:48 | 49.97683 | 5.85899 | 31676 ft | 417 kts | 162° |
| 2026-05-05 13:48 | 49.94931 | 5.87322 | 32068 ft | 415 kts | 162° |
| 2026-05-05 13:49 | 49.92194 | 5.88740 | 32459 ft | 413 kts | 162° |
| 2026-05-05 13:49 | 49.89465 | 5.90152 | 32860 ft | 410 kts | 162° |
| 2026-05-05 13:49 | 49.86797 | 5.91528 | 33280 ft | 407 kts | 163° |
| 2026-05-05 13:49 | 49.84125 | 5.92902 | 33810 ft | 401 kts | 163° |
| 2026-05-05 13:50 | 49.81483 | 5.94256 | 34212 ft | 398 kts | 163° |
| 2026-05-05 13:50 | 49.78857 | 5.95600 | 34474 ft | 398 kts | 162° |
| 2026-05-05 13:50 | 49.76219 | 5.96951 | 34685 ft | 399 kts | 162° |
| 2026-05-05 13:50 | 49.73571 | 5.98305 | 34821 ft | 400 kts | 162° |